createdAt,value
2022-12-10T00:01:17.214Z,98873.84
2022-12-10T00:03:44.256Z,98873.94
2022-12-10T00:06:13.579Z,98878.78
2022-12-10T00:08:40.392Z,98875.72
2022-12-10T00:11:09.387Z,98876.47
2022-12-10T00:13:36.784Z,98873.84
2022-12-10T00:16:05.257Z,98883.28
2022-12-10T00:18:32.142Z,98865.56
2022-12-10T00:20:59.014Z,98871.25
2022-12-10T00:23:25.753Z,98851.75
2022-12-10T00:25:52.393Z,98857.63
2022-12-10T00:28:19.087Z,98845.63
2022-12-10T00:30:45.744Z,98849.59
2022-12-10T00:33:12.380Z,98843.91
2022-12-10T00:35:39.059Z,98838.09
2022-12-10T00:38:05.731Z,98833.66
2022-12-10T00:40:33.895Z,98830.09
2022-12-10T00:43:00.483Z,98809.66
2022-12-10T00:45:27.132Z,98802.94
2022-12-10T00:47:53.943Z,98812.19
2022-12-10T00:50:20.593Z,98810.50
2022-12-10T00:52:47.224Z,98796.41
2022-12-10T00:55:13.865Z,98807.16
2022-12-10T00:57:40.457Z,98799.28
2022-12-10T01:00:08.286Z,98781.41
2022-12-10T01:02:35.111Z,98778.91
2022-12-10T01:05:01.720Z,98777.00
2022-12-10T01:07:28.383Z,98786.47
2022-12-10T01:09:54.975Z,98780.84
2022-12-10T01:12:21.620Z,98767.13
2022-12-10T01:14:48.216Z,98761.13
2022-12-10T01:17:14.830Z,98764.03
2022-12-10T01:19:41.424Z,98761.00
2022-12-10T01:22:11.036Z,98736.91
2022-12-10T01:24:37.698Z,98728.97
2022-12-10T01:27:04.468Z,98754.13
2022-12-10T01:29:31.156Z,98758.28
2022-12-10T01:31:58.875Z,98749.94
2022-12-10T01:34:25.637Z,98748.34
2022-12-10T01:36:54.382Z,98730.59
2022-12-10T01:39:22.756Z,98730.22
2022-12-10T01:42:00.568Z,98733.41
2022-12-10T01:44:27.137Z,98735.00
2022-12-10T01:46:59.479Z,98729.84
2022-12-10T01:49:41.202Z,98726.53
2022-12-10T01:52:10.816Z,98722.75
2022-12-10T01:54:40.372Z,98720.25
2022-12-10T01:57:08.311Z,98709.34
2022-12-10T01:59:36.078Z,98707.41
2022-12-10T02:02:12.114Z,98711.69
2022-12-10T02:04:44.722Z,98711.59
2022-12-10T02:07:28.438Z,98697.00
2022-12-10T02:10:26.287Z,98700.00
2022-12-10T02:12:59.361Z,98706.31
2022-12-10T02:15:29.115Z,98696.13
2022-12-10T02:18:10.067Z,98700.13
2022-12-10T02:20:41.483Z,98700.41
2022-12-10T02:23:17.914Z,98694.28
2022-12-10T02:25:52.681Z,98679.25
2022-12-10T02:28:19.680Z,98678.91
2022-12-10T02:30:46.769Z,98672.78
2022-12-10T02:33:14.394Z,98666.59
2022-12-10T02:35:42.134Z,98671.38
2022-12-10T02:38:16.237Z,98685.31
2022-12-10T02:40:46.103Z,98662.34
2022-12-10T02:43:14.614Z,98665.66
2022-12-10T02:45:43.134Z,98676.56
2022-12-10T02:48:10.707Z,98674.06
2022-12-10T02:50:37.468Z,98682.59
2022-12-10T02:53:04.235Z,98694.53
2022-12-10T02:55:48.931Z,98689.88
2022-12-10T02:58:27.759Z,98693.13
2022-12-10T03:01:31.034Z,98690.22
2022-12-10T03:04:01.790Z,98680.47
2022-12-10T03:06:46.745Z,98679.84
2022-12-10T03:09:20.314Z,98677.31
2022-12-10T03:11:49.923Z,98676.47
2022-12-10T17:09:33.485Z,98239.59
2022-12-10T17:12:00.229Z,98228.13
2022-12-10T17:14:30.094Z,98229.72
2022-12-10T17:16:58.752Z,98233.13
2022-12-10T17:19:28.014Z,98232.44
2022-12-10T17:21:54.778Z,98235.63
2022-12-10T17:24:21.397Z,98234.03
2022-12-10T17:26:49.072Z,98246.47
2022-12-10T17:29:27.428Z,98239.56
2022-12-10T17:31:54.113Z,98247.22
2022-12-10T17:34:24.106Z,98256.56
2022-12-10T17:36:52.154Z,98261.88
2022-12-10T17:39:22.728Z,98259.88
2022-12-10T17:41:50.728Z,98270.31
2022-12-10T17:44:17.889Z,98264.47
2022-12-10T17:46:44.579Z,98258.22
2022-12-10T17:49:14.619Z,98241.34
2022-12-10T17:51:42.535Z,98252.50
2022-12-10T17:54:09.325Z,98267.06
2022-12-10T17:56:36.302Z,98257.06
2022-12-10T17:59:03.100Z,98243.66
2022-12-10T18:01:31.722Z,98262.66
2022-12-10T18:03:59.048Z,98265.13
2022-12-10T18:06:28.998Z,98278.25
2022-12-10T18:08:58.821Z,98287.69
2022-12-10T18:11:28.812Z,98286.63
2022-12-10T18:13:55.843Z,98277.81
2022-12-10T18:16:31.035Z,98297.38
2022-12-10T18:18:59.080Z,98284.34
2022-12-10T18:21:26.624Z,98297.91
2022-12-10T18:23:53.606Z,98291.63
2022-12-10T18:26:23.356Z,98296.09
2022-12-10T18:28:56.714Z,98305.88
2022-12-10T18:31:29.240Z,98298.69
2022-12-10T18:33:59.945Z,98275.59
2022-12-10T18:36:30.143Z,98280.56
2022-12-10T18:38:58.850Z,98283.44
2022-12-10T18:41:26.350Z,98280.09
2022-12-10T18:43:53.361Z,98280.19
2022-12-10T18:46:23.472Z,98286.75
2022-12-10T18:48:50.762Z,98289.03
2022-12-10T18:51:23.473Z,98285.81
2022-12-10T18:53:50.409Z,98289.63
2022-12-10T18:56:20.327Z,98281.78
2022-12-10T18:58:47.499Z,98265.13
2022-12-10T19:01:15.602Z,98275.13
2022-12-10T19:03:48.492Z,98271.72
2022-12-10T19:06:18.022Z,98267.66
2022-12-10T19:11:32.783Z,98268.50
2022-12-10T19:13:59.385Z,98280.44
2022-12-10T19:16:26.419Z,98276.69
2022-12-10T19:18:54.528Z,98280.59
2022-12-10T19:21:21.160Z,98270.53
2022-12-10T19:23:47.888Z,98270.06
2022-12-10T19:26:28.846Z,98283.28
2022-12-10T19:28:56.111Z,98291.09
2022-12-10T19:31:23.064Z,98285.75
2022-12-10T19:33:49.816Z,98288.09
2022-12-10T19:36:24.276Z,98290.03
2022-12-10T19:38:52.222Z,98292.25
2022-12-10T19:41:21.379Z,98286.22
2022-12-10T19:43:49.142Z,98290.13
2022-12-10T19:46:27.072Z,98294.13
2022-12-10T19:48:54.275Z,98297.59
2022-12-10T19:51:24.265Z,98295.34
2022-12-10T19:53:55.047Z,98300.25
2022-12-10T19:56:30.981Z,98300.44
2022-12-10T19:59:00.316Z,98295.66
2022-12-10T20:01:28.674Z,98290.81
2022-12-10T20:03:56.367Z,98303.94
2022-12-10T20:06:30.954Z,98295.81
2022-12-10T20:08:59.560Z,98295.50
2022-12-10T20:11:26.787Z,98300.28
2022-12-10T20:13:53.513Z,98287.06
2022-12-10T20:16:22.520Z,98290.75
2022-12-10T20:18:49.964Z,98282.72
2022-12-10T20:21:17.219Z,98261.81
2022-12-10T20:23:43.981Z,98295.25
2022-12-10T20:26:34.217Z,98292.84
2022-12-10T20:29:01.814Z,98289.59
2022-12-10T20:31:30.127Z,98291.47
2022-12-10T20:33:57.085Z,98298.50
2022-12-10T20:36:26.180Z,98300.28
2022-12-10T20:38:53.387Z,98297.78
2022-12-10T20:41:21.943Z,98309.34
2022-12-10T20:43:49.051Z,98310.56
2022-12-10T20:46:26.048Z,98315.28
2022-12-10T20:48:53.138Z,98319.97
2022-12-10T20:51:19.959Z,98333.72
2022-12-10T20:53:47.501Z,98326.41
2022-12-10T20:56:17.054Z,98325.47
2022-12-10T20:58:44.497Z,98314.19
2022-12-10T21:01:12.582Z,98317.69
2022-12-10T21:03:39.601Z,98326.19
2022-12-10T21:06:07.721Z,98326.94
2022-12-10T21:08:34.488Z,98321.34
2022-12-10T21:11:01.489Z,98318.88
2022-12-10T21:13:29.956Z,98333.09
2022-12-10T21:15:58.863Z,98327.31
2022-12-10T21:18:26.161Z,98334.03
2022-12-10T21:20:53.446Z,98346.59
2022-12-10T21:23:24.235Z,98338.88
2022-12-10T21:25:52.026Z,98314.56
2022-12-10T21:28:19.385Z,98300.03
2022-12-10T21:30:48.354Z,98311.03
2022-12-10T21:33:16.997Z,98324.16
2022-12-10T21:35:44.358Z,98306.31
2022-12-10T21:38:11.770Z,98332.47
2022-12-10T21:40:43.197Z,98337.59
2022-12-10T21:43:23.859Z,98358.34
2022-12-10T21:45:52.977Z,98370.13
2022-12-10T21:48:22.474Z,98361.72
2022-12-10T21:50:49.605Z,98369.56
2022-12-10T21:53:16.465Z,98351.94
2022-12-10T21:55:43.884Z,98348.94
2022-12-10T21:58:11.725Z,98350.28
2022-12-10T22:00:38.866Z,98334.25
2022-12-10T22:03:06.048Z,98334.88
2022-12-10T22:05:33.449Z,98324.88
2022-12-10T22:08:00.572Z,98321.53
2022-12-10T22:10:27.474Z,98326.91
2022-12-10T22:12:54.189Z,98332.41
2022-12-10T22:15:20.928Z,98335.50
2022-12-10T22:17:47.639Z,98335.13
2022-12-10T22:20:14.431Z,98331.72
2022-12-10T22:22:41.210Z,98339.03
2022-12-10T22:25:08.560Z,98340.84
2022-12-10T22:27:35.919Z,98335.94
2022-12-10T22:30:05.202Z,98342.84
2022-12-10T22:32:31.897Z,98332.47
2022-12-10T22:34:58.726Z,98343.00
2022-12-10T22:37:25.619Z,98337.97
2022-12-10T22:39:54.470Z,98337.75
2022-12-10T22:42:21.937Z,98337.22
2022-12-10T22:44:48.600Z,98340.63
2022-12-10T22:47:15.828Z,98338.03
2022-12-10T22:49:42.500Z,98330.88
2022-12-10T22:52:09.323Z,98322.59
2022-12-10T22:54:35.981Z,98326.78
2022-12-10T22:57:02.726Z,98325.59
2022-12-10T22:59:30.119Z,98320.72
2022-12-10T23:01:58.690Z,98315.66
2022-12-10T23:04:25.991Z,98325.63
2022-12-10T23:06:52.877Z,98325.88
2022-12-10T23:09:19.554Z,98343.94
2022-12-10T23:12:06.186Z,98335.78
2022-12-10T23:14:33.451Z,98328.78
2022-12-10T23:17:00.090Z,98337.50
2022-12-10T23:19:28.293Z,98330.72
2022-12-10T23:21:55.556Z,98329.00
2022-12-10T23:24:22.438Z,98316.19
2022-12-10T23:26:49.213Z,98310.44
2022-12-10T23:29:16.176Z,98289.19
2022-12-10T23:31:43.347Z,98289.41
2022-12-10T23:34:10.317Z,98296.94
2022-12-10T23:36:37.127Z,98292.00
2022-12-10T23:39:04.221Z,98291.16
2022-12-10T23:41:31.119Z,98307.31
2022-12-10T23:43:58.008Z,98320.09
2022-12-10T23:46:25.076Z,98330.00
2022-12-10T23:48:51.807Z,98330.53
2022-12-10T23:51:18.454Z,98332.91
2022-12-10T23:53:45.167Z,98321.25
2022-12-10T23:56:17.381Z,98328.25
2022-12-10T23:58:45.058Z,98307.63
